Time;durP1;ratioP1;P1;durP2;ratioP2;P2;SDS_P1;SDS_P2;PMS_P1;PMS_P2;Temp;Humidity;BMP_temperature;BMP_pressure;BME280_temperature;BME280_humidity;BME280_pressure;Samples;Min_cycle;Max_cycle;Signal;HPM_P1;HPM_P2
2022/10/26 00:02:15;;;;;;;9.57;5.68;;;10.80;99.90;;;;;;5066766;28;20024;-74
2022/10/26 00:04:40;;;;;;;10.10;6.53;;;10.70;99.90;;;;;;5069754;28;20024;-74
2022/10/26 00:07:06;;;;;;;13.40;6.28;;;10.80;99.90;;;;;;5063258;28;20029;-74
2022/10/26 00:09:32;;;;;;;12.93;5.72;;;10.90;99.90;;;;;;5070732;28;20035;-75
2022/10/26 00:11:57;;;;;;;9.27;5.95;;;10.90;99.90;;;;;;5067366;28;20024;-75
2022/10/26 00:14:23;;;;;;;10.75;5.35;;;10.90;99.90;;;;;;5068997;28;20103;-76
2022/10/26 00:16:49;;;;;;;13.73;5.55;;;11.00;99.90;;;;;;5067111;28;20033;-74
2022/10/26 00:19:14;;;;;;;10.52;5.90;;;10.90;99.90;;;;;;5068625;28;20404;-74
2022/10/26 00:21:40;;;;;;;12.07;6.18;;;11.00;99.90;;;;;;5068597;28;20476;-74
2022/10/26 00:24:05;;;;;;;13.60;6.13;;;11.00;99.90;;;;;;5067069;28;20041;-74
2022/10/26 00:26:31;;;;;;;10.88;6.20;;;11.00;99.90;;;;;;5068386;28;20110;-75
2022/10/26 00:28:57;;;;;;;12.73;5.97;;;11.10;99.90;;;;;;5069981;28;20066;-74
2022/10/26 00:31:23;;;;;;;10.32;5.53;;;11.10;99.90;;;;;;5069171;28;20048;-75
2022/10/26 00:33:53;;;;;;;13.75;6.00;;;11.20;99.90;;;;;;5065974;28;20551;-74
2022/10/26 00:36:19;;;;;;;12.68;5.90;;;11.20;99.90;;;;;;5061684;28;20492;-74
2022/10/26 00:38:53;;;;;;;11.65;5.93;;;11.20;99.90;;;;;;5065600;28;20051;-74
2022/10/26 00:41:25;;;;;;;14.32;6.32;;;11.30;99.90;;;;;;5060162;28;20041;-74
2022/10/26 00:43:52;;;;;;;14.23;7.28;;;11.30;99.90;;;;;;5066431;28;20025;-75
2022/10/26 00:46:25;;;;;;;11.45;6.93;;;11.30;99.90;;;;;;5069990;28;20040;-74
2022/10/26 00:48:58;;;;;;;14.30;7.32;;;11.30;99.90;;;;;;5068943;28;20037;-74
2022/10/26 00:51:33;;;;;;;14.68;6.88;;;11.40;99.90;;;;;;5071034;28;20048;-74
2022/10/26 00:54:01;;;;;;;12.70;6.53;;;11.40;99.90;;;;;;5067446;28;20115;-74
2022/10/26 00:56:30;;;;;;;15.07;7.32;;;11.40;99.90;;;;;;5067292;28;20028;-75
2022/10/26 00:59:03;;;;;;;15.85;6.45;;;11.40;99.90;;;;;;5065875;28;20039;-74
2022/10/26 01:01:32;;;;;;;13.30;5.97;;;11.40;99.90;;;;;;5068888;28;20025;-74
2022/10/26 01:03:59;;;;;;;10.45;6.13;;;11.40;99.90;;;;;;5067889;28;20030;-75
2022/10/26 01:06:29;;;;;;;12.80;6.13;;;11.40;99.90;;;;;;5068470;28;20507;-74
2022/10/26 01:08:55;;;;;;;12.43;5.10;;;11.50;99.90;;;;;;5068537;28;20024;-74
2022/10/26 01:11:20;;;;;;;9.75;4.47;;;11.50;99.90;;;;;;5069217;28;20400;-74
2022/10/26 01:13:49;;;;;;;9.63;5.15;;;11.50;99.90;;;;;;5066833;28;20078;-74
2022/10/26 01:16:26;;;;;;;8.68;5.20;;;11.50;99.90;;;;;;5067703;28;20063;-74
2022/10/26 01:19:19;;;;;;;10.43;4.85;;;11.50;99.90;;;;;;5067524;28;20029;-74
2022/10/26 01:21:48;;;;;;;9.30;4.50;;;11.60;99.90;;;;;;5069047;28;20082;-75
2022/10/26 01:24:39;;;;;;;11.45;5.20;;;11.50;99.90;;;;;;5064097;28;20082;-75
2022/10/26 01:27:07;;;;;;;10.45;5.13;;;11.50;99.90;;;;;;5066489;28;20020;-74
2022/10/26 01:29:51;;;;;;;11.10;4.95;;;11.50;99.90;;;;;;5066737;28;20115;-75
2022/10/26 01:32:29;;;;;;;8.85;5.00;;;11.50;99.90;;;;;;5065171;28;20013;-76
2022/10/26 01:35:09;;;;;;;12.38;5.13;;;11.50;99.90;;;;;;5069253;28;20025;-75
2022/10/26 01:38:01;;;;;;;10.68;4.60;;;11.60;99.90;;;;;;5065787;28;20016;-75
2022/10/26 01:40:42;;;;;;;8.15;4.93;;;11.60;99.90;;;;;;5054771;28;20086;-74
2022/10/26 01:43:12;;;;;;;12.63;5.40;;;11.60;99.90;;;;;;5069770;28;20105;-74
2022/10/26 01:45:42;;;;;;;12.60;5.45;;;11.60;99.90;;;;;;5074021;28;20034;-74
2022/10/26 01:48:12;;;;;;;10.20;5.13;;;11.60;99.90;;;;;;5069341;28;20028;-74
2022/10/26 01:50:39;;;;;;;11.52;5.00;;;11.60;99.90;;;;;;5069544;28;20056;-74
2022/10/26 01:53:04;;;;;;;9.45;5.32;;;11.60;99.90;;;;;;5071490;28;20123;-74
2022/10/26 01:55:44;;;;;;;10.00;4.95;;;11.60;99.90;;;;;;5071027;28;20131;-75
2022/10/26 01:58:22;;;;;;;11.40;4.93;;;11.60;99.90;;;;;;5070207;28;20055;-74
2022/10/26 02:01:21;;;;;;;13.57;5.30;;;11.60;99.90;;;;;;5070909;28;20064;-74
2022/10/26 02:03:54;;;;;;;11.35;5.00;;;11.60;99.90;;;;;;5070189;28;20142;-74
2022/10/26 02:06:55;;;;;;;11.85;5.40;;;11.60;99.90;;;;;;5072424;28;20111;-74
2022/10/26 02:09:57;;;;;;;11.65;5.32;;;11.60;99.90;;;;;;5068591;28;20064;-74
2022/10/26 02:12:47;;;;;;;10.73;5.20;;;11.60;99.90;;;;;;5063930;28;20051;-74
2022/10/26 02:15:24;;;;;;;10.95;4.28;;;11.60;99.90;;;;;;5070298;28;20036;-73
2022/10/26 02:17:57;;;;;;;8.18;4.20;;;11.70;99.90;;;;;;5071665;28;20033;-74
2022/10/26 02:20:30;;;;;;;16.23;5.25;;;11.70;99.90;;;;;;5068943;28;20431;-74
2022/10/26 02:22:56;;;;;;;8.52;3.85;;;11.70;99.90;;;;;;5068292;28;20058;-73
2022/10/26 02:25:30;;;;;;;9.68;4.20;;;11.70;99.90;;;;;;5068401;28;20052;-75
2022/10/26 02:28:00;;;;;;;8.48;4.65;;;11.70;99.90;;;;;;5069229;28;20095;-74
2022/10/26 02:30:26;;;;;;;9.43;4.35;;;11.80;99.90;;;;;;5069843;28;20027;-74
2022/10/26 02:32:55;;;;;;;9.15;3.88;;;11.80;99.90;;;;;;5068050;28;20234;-74
2022/10/26 02:35:26;;;;;;;8.10;4.50;;;11.80;99.90;;;;;;5068920;28;20021;-74
2022/10/26 02:37:55;;;;;;;7.70;3.80;;;11.80;99.90;;;;;;5072297;28;20027;-74
2022/10/26 02:40:25;;;;;;;6.72;3.95;;;11.80;99.90;;;;;;5072801;28;20043;-74
2022/10/26 02:42:52;;;;;;;13.32;4.57;;;11.80;99.90;;;;;;5064157;28;20021;-75
2022/10/26 02:45:25;;;;;;;10.45;3.88;;;11.80;99.90;;;;;;5068170;28;20079;-75
2022/10/26 02:47:51;;;;;;;8.80;4.07;;;11.90;99.90;;;;;;5071859;28;20047;-74
2022/10/26 02:50:20;;;;;;;10.15;4.35;;;11.90;99.90;;;;;;5070889;28;20065;-74
2022/10/26 02:52:53;;;;;;;12.88;5.03;;;11.90;99.90;;;;;;5063359;28;20498;-73
2022/10/26 02:55:26;;;;;;;7.22;4.18;;;11.90;99.90;;;;;;5069635;28;20033;-74
2022/10/26 02:57:57;;;;;;;10.25;4.70;;;11.90;99.90;;;;;;5070239;28;20032;-74
2022/10/26 03:00:23;;;;;;;11.73;4.60;;;12.00;99.90;;;;;;5070311;28;20044;-74
2022/10/26 03:02:56;;;;;;;11.63;4.70;;;12.00;99.90;;;;;;5066722;28;20027;-74
2022/10/26 03:05:31;;;;;;;9.63;4.38;;;12.00;99.90;;;;;;5070970;28;20488;-74
2022/10/26 03:07:58;;;;;;;9.85;4.85;;;12.00;99.90;;;;;;5071186;28;20132;-74
2022/10/26 03:10:24;;;;;;;9.65;4.47;;;11.90;99.90;;;;;;5070747;28;20038;-74
2022/10/26 03:12:50;;;;;;;12.57;4.72;;;11.90;99.90;;;;;;5066859;28;20025;-74
2022/10/26 03:15:16;;;;;;;12.82;4.80;;;11.80;99.90;;;;;;5070118;28;20044;-75
2022/10/26 03:17:42;;;;;;;11.93;4.30;;;11.80;99.90;;;;;;5070827;28;20567;-75
2022/10/26 03:20:08;;;;;;;10.77;4.70;;;11.80;99.90;;;;;;5070534;28;20132;-74
2022/10/26 03:22:34;;;;;;;17.17;6.03;;;11.70;99.90;;;;;;5068934;28;20033;-74
2022/10/26 03:25:00;;;;;;;9.55;4.28;;;11.70;99.90;;;;;;5070782;28;20075;-74
2022/10/26 03:27:28;;;;;;;12.13;5.20;;;11.70;99.90;;;;;;5069871;28;20039;-74
2022/10/26 03:29:54;;;;;;;13.07;5.22;;;11.70;99.90;;;;;;5071859;28;20454;-74
2022/10/26 03:32:20;;;;;;;15.52;4.70;;;11.70;99.90;;;;;;5069146;28;20468;-74
2022/10/26 03:34:45;;;;;;;10.60;5.63;;;11.60;99.90;;;;;;5069130;28;20032;-75
2022/10/26 03:37:11;;;;;;;10.57;4.30;;;11.60;99.90;;;;;;5071511;28;20366;-74
2022/10/26 03:39:37;;;;;;;10.88;4.45;;;11.60;99.90;;;;;;5069262;28;20123;-75
2022/10/26 03:42:02;;;;;;;15.15;5.25;;;11.60;99.90;;;;;;5061825;28;20089;-74
2022/10/26 03:44:28;;;;;;;7.35;4.75;;;11.60;99.90;;;;;;5062366;28;20025;-74
2022/10/26 03:46:54;;;;;;;8.32;4.80;;;11.60;99.90;;;;;;5067215;28;20020;-74
2022/10/26 03:49:19;;;;;;;8.82;5.00;;;11.70;99.90;;;;;;5067521;28;20052;-74
2022/10/26 03:51:45;;;;;;;10.10;4.50;;;11.70;99.90;;;;;;5065396;28;20055;-74
2022/10/26 03:54:10;;;;;;;8.10;4.30;;;11.70;99.90;;;;;;5071277;28;20032;-75
2022/10/26 03:56:36;;;;;;;10.85;4.30;;;11.70;99.90;;;;;;5070318;28;20025;-74
2022/10/26 03:59:02;;;;;;;9.18;4.40;;;11.80;99.90;;;;;;5071676;28;20036;-75
2022/10/26 04:01:27;;;;;;;9.68;4.68;;;11.80;99.90;;;;;;5066569;28;20032;-74
2022/10/26 04:03:53;;;;;;;10.38;4.40;;;11.90;99.90;;;;;;5064753;28;20112;-74
2022/10/26 04:06:18;;;;;;;13.18;4.25;;;11.90;99.90;;;;;;5052326;28;20020;-74
2022/10/26 04:08:44;;;;;;;12.85;4.65;;;11.90;99.90;;;;;;5069517;28;20090;-74
2022/10/26 04:11:10;;;;;;;7.60;4.70;;;11.90;99.90;;;;;;5068916;28;20028;-74
2022/10/26 04:13:35;;;;;;;17.23;5.15;;;12.00;99.90;;;;;;5070524;28;20028;-74
2022/10/26 04:16:01;;;;;;;8.05;3.78;;;12.00;99.90;;;;;;5069450;28;20028;-74
2022/10/26 04:18:26;;;;;;;9.73;4.50;;;12.00;99.90;;;;;;5061725;28;20024;-74
2022/10/26 04:20:52;;;;;;;10.07;4.38;;;12.00;99.90;;;;;;5065055;28;20067;-74
2022/10/26 04:23:18;;;;;;;10.52;4.47;;;12.10;99.90;;;;;;5066146;28;20040;-74
2022/10/26 04:25:45;;;;;;;7.43;3.88;;;12.10;99.90;;;;;;5071848;28;20028;-73
2022/10/26 04:28:12;;;;;;;10.00;4.05;;;12.10;99.90;;;;;;5068262;28;20063;-74
2022/10/26 04:30:39;;;;;;;8.05;3.92;;;12.10;99.90;;;;;;5069542;28;20056;-74
2022/10/26 04:33:06;;;;;;;11.32;4.40;;;12.10;99.90;;;;;;5066072;28;20111;-74
2022/10/26 04:35:32;;;;;;;8.27;3.80;;;12.20;99.90;;;;;;5066936;28;20162;-74
2022/10/26 04:38:03;;;;;;;7.25;4.15;;;12.20;99.90;;;;;;5070355;28;20472;-74
2022/10/26 04:40:30;;;;;;;10.68;4.03;;;12.20;99.90;;;;;;5066424;28;20055;-74
2022/10/26 04:42:55;;;;;;;11.77;4.65;;;12.10;99.90;;;;;;5069533;28;20481;-74
2022/10/26 04:45:22;;;;;;;6.60;3.88;;;12.10;99.90;;;;;;5066949;28;20024;-74
2022/10/26 04:47:57;;;;;;;7.25;3.90;;;12.10;99.90;;;;;;5063528;28;20033;-75
2022/10/26 04:50:22;;;;;;;14.07;4.18;;;12.10;99.90;;;;;;5067030;28;20067;-75
2022/10/26 04:52:49;;;;;;;11.63;4.43;;;12.10;99.90;;;;;;5066173;28;20028;-74
2022/10/26 04:55:15;;;;;;;9.95;3.47;;;12.10;99.90;;;;;;5071108;28;20032;-74
2022/10/26 04:57:43;;;;;;;9.25;4.07;;;12.10;99.90;;;;;;5068771;28;20554;-74
2022/10/26 05:00:10;;;;;;;8.82;4.38;;;12.10;99.90;;;;;;5064801;28;20496;-74
2022/10/26 05:02:35;;;;;;;9.65;4.20;;;12.10;99.90;;;;;;5054240;28;20025;-74
2022/10/26 05:05:01;;;;;;;7.05;3.40;;;12.10;99.90;;;;;;5053449;28;20086;-75
2022/10/26 05:07:26;;;;;;;6.93;3.70;;;12.10;99.90;;;;;;5060426;28;20484;-74
2022/10/26 05:09:52;;;;;;;8.88;3.88;;;12.10;99.90;;;;;;5055231;28;20044;-74
2022/10/26 05:12:18;;;;;;;11.57;4.18;;;12.10;99.90;;;;;;5060612;28;20028;-75
2022/10/26 05:14:44;;;;;;;7.95;4.00;;;12.10;99.90;;;;;;5059181;22;20071;-75
2022/10/26 05:17:09;;;;;;;7.72;3.50;;;12.10;99.90;;;;;;5045496;28;20025;-74
2022/10/26 05:19:35;;;;;;;8.55;3.60;;;12.10;99.90;;;;;;5034675;28;20100;-74
2022/10/26 05:22:00;;;;;;;6.78;3.67;;;12.20;99.90;;;;;;5022413;28;20080;-74
2022/10/26 05:24:26;;;;;;;8.27;3.80;;;12.20;99.90;;;;;;5010911;28;20489;-74
2022/10/26 05:26:51;;;;;;;9.68;3.30;;;12.20;99.90;;;;;;5031055;28;20032;-74
2022/10/26 05:29:17;;;;;;;8.10;3.47;;;12.20;99.90;;;;;;5025964;28;20108;-74
2022/10/26 05:31:42;;;;;;;5.28;2.97;;;12.20;99.90;;;;;;5026469;28;20056;-74
2022/10/26 05:34:08;;;;;;;9.40;3.63;;;12.30;99.90;;;;;;5013914;28;20051;-73
2022/10/26 05:36:33;;;;;;;12.63;4.13;;;12.30;99.90;;;;;;5014697;28;20037;-73
2022/10/26 05:41:34;;;;;;;9.02;3.53;;;12.30;99.90;;;;;;5132617;22;20053;-95
2022/10/26 05:44:00;;;;;;;9.25;3.47;;;12.30;99.90;;;;;;5028047;28;20029;-96
2022/10/26 05:46:25;;;;;;;13.98;3.90;;;12.30;99.90;;;;;;5035243;28;20084;-94
2022/10/26 05:48:51;;;;;;;6.03;3.33;;;12.30;99.90;;;;;;5038365;28;20036;-96
2022/10/26 05:51:16;;;;;;;7.53;3.65;;;12.30;99.90;;;;;;5025644;28;20049;-95
2022/10/26 05:53:42;;;;;;;9.93;3.60;;;12.30;99.90;;;;;;5056351;28;20025;-95
2022/10/26 05:56:33;;;;;;;8.27;2.58;;;12.30;99.90;;;;;;5037610;28;20029;-94
2022/10/26 05:58:59;;;;;;;8.80;3.30;;;12.30;99.90;;;;;;5026610;28;20025;-95
2022/10/26 06:01:31;;;;;;;7.78;3.40;;;12.20;99.90;;;;;;5038861;28;20032;-95
2022/10/26 06:04:26;;;;;;;6.40;3.38;;;12.20;99.90;;;;;;5037226;28;20036;-95
2022/10/26 06:06:53;;;;;;;7.30;3.75;;;12.20;99.90;;;;;;5017314;28;20507;-94
2022/10/26 06:09:19;;;;;;;9.52;3.05;;;12.20;99.90;;;;;;5036816;28;20067;-95
2022/10/26 06:11:46;;;;;;;7.60;3.35;;;12.20;99.90;;;;;;5047969;28;20045;-96
2022/10/26 06:14:12;;;;;;;7.05;2.55;;;12.10;99.90;;;;;;5037572;28;20044;-94
2022/10/26 06:16:56;;;;;;;8.35;3.20;;;12.10;99.90;;;;;;5039722;28;20033;-95
2022/10/26 06:19:40;;;;;;;9.25;3.20;;;12.10;99.90;;;;;;5041226;28;20041;-96
2022/10/26 06:22:20;;;;;;;9.07;2.80;;;12.10;99.90;;;;;;5054310;28;20025;-94
2022/10/26 06:24:55;;;;;;;8.82;2.78;;;12.10;99.90;;;;;;5053495;28;20059;-95
2022/10/26 06:27:30;;;;;;;7.60;2.92;;;12.10;99.90;;;;;;5053359;28;20530;-95
2022/10/26 06:30:08;;;;;;;9.15;3.25;;;12.00;99.90;;;;;;5045690;28;20392;-95
2022/10/26 06:32:35;;;;;;;8.40;3.38;;;12.10;99.90;;;;;;5024823;28;20029;-94
2022/10/26 06:35:27;;;;;;;7.85;3.10;;;12.00;99.90;;;;;;5032761;28;20033;-95
2022/10/26 06:37:54;;;;;;;;;;;12.00;99.90;;;;;;5042294;28;20556;-94
2022/10/26 06:40:22;;;;;;;8.38;3.20;;;12.00;99.90;;;;;;5039560;28;19924;-95
2022/10/26 06:42:47;;;;;;;7.72;2.40;;;12.00;99.90;;;;;;5040108;28;20029;-96
2022/10/26 06:45:15;;;;;;;6.72;2.55;;;12.00;99.90;;;;;;5038385;28;20032;-94
2022/10/26 06:48:06;;;;;;;8.55;3.40;;;12.00;99.90;;;;;;5027802;28;20088;-96
2022/10/26 06:50:51;;;;;;;8.85;3.35;;;12.00;99.90;;;;;;5041891;28;20025;-94
2022/10/26 06:53:20;;;;;;;8.90;2.70;;;12.10;99.90;;;;;;5043174;28;20021;-96
2022/10/26 06:55:47;;;;;;;9.02;2.85;;;12.10;99.90;;;;;;5054023;28;20100;-95
2022/10/26 06:58:16;;;;;;;7.53;3.78;;;12.10;99.90;;;;;;5042264;28;20033;-96
2022/10/26 07:00:45;;;;;;;5.35;2.65;;;12.10;99.90;;;;;;5042723;28;20039;-94
2022/10/26 07:03:11;;;;;;;7.03;2.50;;;12.10;99.90;;;;;;5039324;28;20040;-95
2022/10/26 07:05:37;;;;;;;7.03;2.92;;;12.20;99.90;;;;;;5042278;28;20052;-96
2022/10/26 07:08:03;;;;;;;10.85;3.60;;;12.20;99.90;;;;;;5035479;28;20040;-96
2022/10/26 07:10:29;;;;;;;6.93;3.05;;;12.20;99.90;;;;;;5041940;28;20025;-96
2022/10/26 07:12:55;;;;;;;7.28;2.85;;;12.30;99.90;;;;;;5040968;28;20645;-96
2022/10/26 07:15:21;;;;;;;7.82;2.80;;;12.40;99.90;;;;;;5041076;28;20024;-95
2022/10/26 07:17:48;;;;;;;9.80;3.13;;;12.40;99.90;;;;;;5042102;28;20037;-95
2022/10/26 07:20:15;;;;;;;5.78;2.63;;;12.50;99.90;;;;;;5041024;28;20061;-96
2022/10/26 07:22:41;;;;;;;7.88;2.67;;;12.60;99.90;;;;;;5036648;28;20106;-96
2022/10/26 07:25:08;;;;;;;5.85;2.35;;;12.80;99.90;;;;;;5046685;28;20499;-96
2022/10/26 07:27:34;;;;;;;6.25;2.20;;;12.90;99.90;;;;;;5033979;28;20043;-96
2022/10/26 07:30:01;;;;;;;7.88;2.80;;;13.00;99.90;;;;;;5060479;28;20028;-96
2022/10/26 07:32:27;;;;;;;6.20;2.40;;;13.10;99.90;;;;;;5007407;28;20037;-95
2022/10/26 07:34:52;;;;;;;9.07;1.92;;;13.30;99.90;;;;;;5041036;28;20025;-95
2022/10/26 07:37:18;;;;;;;7.75;2.63;;;13.40;99.90;;;;;;5042187;28;20029;-95
2022/10/26 07:39:44;;;;;;;5.90;2.72;;;13.50;99.90;;;;;;5042667;28;20598;-95
2022/10/26 07:42:10;;;;;;;6.85;2.53;;;13.50;99.90;;;;;;5039582;28;20032;-94
2022/10/26 07:44:36;;;;;;;12.63;2.55;;;13.60;99.90;;;;;;5041822;28;20021;-95
2022/10/26 07:47:01;;;;;;;11.95;2.55;;;13.70;99.90;;;;;;5040998;28;20024;-95
2022/10/26 07:49:27;;;;;;;6.43;2.28;;;13.70;99.90;;;;;;5037830;28;20535;-95
2022/10/26 07:51:53;;;;;;;3.40;2.00;;;13.70;99.90;;;;;;5034574;28;20033;-95
2022/10/26 07:54:18;;;;;;;4.25;2.33;;;13.80;99.90;;;;;;5028550;28;20048;-96
2022/10/26 07:56:47;;;;;;;12.93;2.78;;;13.80;99.90;;;;;;5039014;28;20033;-95
2022/10/26 07:59:13;;;;;;;8.85;2.83;;;13.90;99.90;;;;;;5028916;28;20029;-95
2022/10/26 08:01:38;;;;;;;5.80;2.75;;;13.90;99.90;;;;;;5041143;28;20032;-95
2022/10/26 08:04:04;;;;;;;4.55;2.60;;;14.00;99.90;;;;;;5035618;28;20041;-95
2022/10/26 08:06:30;;;;;;;4.53;2.17;;;14.10;99.90;;;;;;5043664;28;20104;-94
2022/10/26 08:08:55;;;;;;;7.50;2.60;;;14.10;99.90;;;;;;5043344;28;20025;-95
2022/10/26 08:11:21;;;;;;;7.93;2.80;;;14.20;99.90;;;;;;5041721;28;20040;-95
2022/10/26 08:13:50;;;;;;;7.03;2.70;;;14.30;99.90;;;;;;5039878;28;20155;-95
2022/10/26 08:16:16;;;;;;;6.18;3.30;;;14.30;99.90;;;;;;5038742;28;20025;-95
2022/10/26 08:18:42;;;;;;;4.03;2.53;;;14.40;99.90;;;;;;5041325;28;20033;-95
2022/10/26 08:21:11;;;;;;;5.07;2.53;;;14.50;99.90;;;;;;5043073;28;20041;-95
2022/10/26 08:23:36;;;;;;;6.88;2.70;;;14.60;99.90;;;;;;5037521;28;20044;-95
2022/10/26 08:26:03;;;;;;;5.43;2.72;;;14.80;99.90;;;;;;5029018;28;20030;-96
2022/10/26 08:28:29;;;;;;;4.03;2.70;;;14.80;99.90;;;;;;5042906;28;20032;-96
2022/10/26 08:30:55;;;;;;;6.05;3.38;;;14.90;99.90;;;;;;5047173;28;20090;-96
2022/10/26 08:33:22;;;;;;;7.45;3.08;;;15.00;99.90;;;;;;5038933;28;20021;-95
2022/10/26 08:35:49;;;;;;;8.80;2.67;;;15.10;99.90;;;;;;5035186;28;20104;-96
2022/10/26 08:38:14;;;;;;;6.97;3.35;;;15.20;99.90;;;;;;5043060;28;20025;-95
2022/10/26 08:40:42;;;;;;;4.28;2.95;;;15.30;99.90;;;;;;5038327;28;20063;-96
2022/10/26 08:43:30;;;;;;;7.72;3.20;;;15.40;99.90;;;;;;5037659;28;20025;-95
2022/10/26 08:45:57;;;;;;;6.57;2.95;;;15.60;99.90;;;;;;5037561;28;20037;-95
2022/10/26 08:48:29;;;;;;;5.38;3.45;;;15.60;99.90;;;;;;5039904;28;20645;-96
2022/10/26 08:51:02;;;;;;;10.73;3.25;;;15.60;99.90;;;;;;5037344;28;20349;-95
2022/10/26 08:53:42;;;;;;;6.18;3.47;;;15.50;99.90;;;;;;5020724;28;20087;-94
2022/10/26 08:56:24;;;;;;;6.05;3.50;;;15.60;99.90;;;;;;5036953;28;20030;-96
2022/10/26 08:59:15;;;;;;;6.28;2.60;;;15.70;99.90;;;;;;5041696;28;20013;-96
2022/10/26 09:01:41;;;;;;;5.20;2.50;;;15.70;99.90;;;;;;5037406;28;20038;-95
2022/10/26 09:04:14;;;;;;;6.45;2.25;;;15.80;99.90;;;;;;5031644;28;20026;-95
2022/10/26 09:06:58;;;;;;;8.38;2.72;;;15.90;99.90;;;;;;5039930;28;20032;-95
2022/10/26 09:09:40;;;;;;;5.93;2.67;;;16.00;99.90;;;;;;5053197;28;20025;-95
2022/10/26 09:12:18;;;;;;;6.55;2.50;;;16.10;99.90;;;;;;5030508;28;20396;-94
2022/10/26 09:15:06;;;;;;;5.20;1.88;;;16.10;99.90;;;;;;5042493;28;20122;-95
2022/10/26 09:17:46;;;;;;;4.78;1.88;;;16.40;99.90;;;;;;5017250;28;20485;-94
2022/10/26 09:20:49;;;;;;;4.15;1.80;;;16.50;99.90;;;;;;5043751;28;20061;-95
2022/10/26 09:23:27;;;;;;;5.03;2.40;;;16.70;99.90;;;;;;5031587;28;20026;-96
2022/10/26 09:26:01;;;;;;;6.32;2.10;;;16.80;99.90;;;;;;5035887;28;20025;-96
2022/10/26 09:28:33;;;;;;;5.68;2.15;;;16.90;99.90;;;;;;5036277;28;20022;-96
2022/10/26 09:31:00;;;;;;;5.35;1.80;;;17.00;99.90;;;;;;5047425;28;20018;-96
2022/10/26 09:33:28;;;;;;;5.00;1.67;;;17.00;99.90;;;;;;5029329;28;20041;-96
2022/10/26 09:36:05;;;;;;;9.38;1.98;;;17.10;99.90;;;;;;5024235;28;20037;-96
2022/10/26 09:38:45;;;;;;;8.43;2.53;;;17.00;99.90;;;;;;5031609;28;20041;-95
2022/10/26 09:41:29;;;;;;;5.50;1.98;;;17.00;99.90;;;;;;5037030;28;20061;-96
2022/10/26 09:44:25;;;;;;;8.23;2.17;;;17.10;99.90;;;;;;5031108;28;20044;-95
2022/10/26 09:47:12;;;;;;;5.60;2.13;;;17.20;99.90;;;;;;5038222;28;20029;-95
2022/10/26 09:49:52;;;;;;;3.53;1.60;;;17.30;99.90;;;;;;5037554;28;20080;-96
2022/10/26 09:52:18;;;;;;;7.72;1.65;;;17.40;99.90;;;;;;5037093;28;20036;-96
2022/10/26 09:54:44;;;;;;;3.83;1.30;;;17.50;99.90;;;;;;5029715;28;20025;-96
2022/10/26 09:57:14;;;;;;;6.10;2.08;;;17.60;99.90;;;;;;5030841;28;20065;-95
2022/10/26 09:59:41;;;;;;;5.22;1.30;;;17.70;99.90;;;;;;5030536;28;20029;-95
2022/10/26 10:02:37;;;;;;;7.13;1.48;;;17.70;99.90;;;;;;5029428;28;20025;-94
2022/10/26 10:05:20;;;;;;;11.73;2.95;;;17.80;99.90;;;;;;5020799;28;20033;-96
2022/10/26 10:07:45;;;;;;;4.82;1.40;;;17.80;99.90;;;;;;5040113;28;20030;-95
2022/10/26 10:10:16;;;;;;;9.13;1.80;;;17.90;99.90;;;;;;5040720;28;20064;-94
2022/10/26 10:12:43;;;;;;;5.88;1.52;;;18.00;99.90;;;;;;5068352;28;20037;-96
2022/10/26 10:15:35;;;;;;;11.30;1.63;;;18.00;99.90;;;;;;5038892;28;20057;-95
2022/10/26 10:18:01;;;;;;;5.22;1.40;;;18.00;99.90;;;;;;5029872;28;20048;-96
2022/10/26 10:20:31;;;;;;;7.30;1.42;;;18.00;99.90;;;;;;5039273;28;20045;-94
2022/10/26 10:23:02;;;;;;;5.57;1.27;;;18.10;99.90;;;;;;5039250;28;20025;-95
2022/10/26 10:25:35;;;;;;;5.55;1.17;;;18.10;99.90;;;;;;5037914;28;20021;-96
2022/10/26 10:28:01;;;;;;;4.40;1.38;;;18.20;99.90;;;;;;5036171;28;20026;-96
2022/10/26 10:30:32;;;;;;;6.07;1.27;;;18.30;99.90;;;;;;5029056;28;20033;-96
2022/10/26 10:33:11;;;;;;;9.07;1.52;;;18.30;99.90;;;;;;5038627;28;20026;-96
2022/10/26 10:35:46;;;;;;;6.13;1.50;;;18.40;99.90;;;;;;5037713;28;20112;-95
2022/10/26 10:38:20;;;;;;;4.82;1.42;;;18.40;99.90;;;;;;5038155;28;20057;-95
2022/10/26 10:40:55;;;;;;;4.70;1.20;;;18.40;99.90;;;;;;5052279;28;20073;-95
2022/10/26 10:43:21;;;;;;;3.70;1.00;;;18.40;99.90;;;;;;5036357;28;20025;-95
2022/10/26 10:45:50;;;;;;;5.00;1.20;;;18.40;99.90;;;;;;5037551;28;20026;-95
2022/10/26 10:48:23;;;;;;;8.73;1.60;;;18.50;99.90;;;;;;5036695;28;20030;-94
2022/10/26 10:50:59;;;;;;;5.68;1.13;;;18.50;99.90;;;;;;5026843;28;20429;-95
2022/10/26 10:53:35;;;;;;;8.80;1.23;;;18.60;99.90;;;;;;5033382;28;20061;-96
2022/10/26 10:56:33;;;;;;;5.40;1.48;;;18.70;99.90;;;;;;5037547;28;20116;-93
2022/10/26 10:59:16;;;;;;;7.05;1.17;;;18.70;99.90;;;;;;5039071;28;20028;-96
2022/10/26 11:01:49;;;;;;;3.33;1.00;;;18.80;99.90;;;;;;5034857;28;20033;-96
2022/10/26 11:04:43;;;;;;;5.82;1.10;;;18.90;99.90;;;;;;5036267;28;20025;-95
2022/10/26 11:07:12;;;;;;;7.95;1.63;;;18.90;99.90;;;;;;5031216;28;20035;-95
2022/10/26 11:09:42;;;;;;;6.85;1.40;;;18.90;99.90;;;;;;5039982;28;20045;-96
2022/10/26 11:12:23;;;;;;;4.65;0.93;;;19.00;99.90;;;;;;5037203;28;20026;-94
2022/10/26 11:15:15;;;;;;;2.78;0.90;;;19.00;99.90;;;;;;5033882;28;20030;-96
2022/10/26 11:18:03;;;;;;;4.15;1.10;;;19.10;99.90;;;;;;5039842;28;20025;-95
2022/10/26 11:20:31;;;;;;;4.95;0.90;;;19.10;99.90;;;;;;5032092;28;20308;-96
2022/10/26 11:23:29;;;;;;;9.32;1.25;;;19.10;99.90;;;;;;5037100;28;20017;-96
2022/10/26 11:25:58;;;;;;;3.85;1.10;;;19.20;99.90;;;;;;5032528;28;20029;-94
2022/10/26 11:28:39;;;;;;;6.90;1.67;;;19.30;99.90;;;;;;5037286;28;20037;-95
2022/10/26 11:31:09;;;;;;;5.43;1.30;;;19.30;99.90;;;;;;5033506;28;20026;-95
2022/10/26 11:33:44;;;;;;;3.60;0.77;;;19.30;99.90;;;;;;5023614;28;20026;-95
2022/10/26 11:36:15;;;;;;;2.05;0.80;;;19.30;99.90;;;;;;5028642;28;20057;-95
2022/10/26 11:39:11;;;;;;;7.47;1.40;;;19.30;99.90;;;;;;5025848;28;20085;-96
2022/10/26 11:41:51;;;;;;;4.18;0.70;;;19.30;99.90;;;;;;5032385;28;20045;-95
2022/10/26 11:44:41;;;;;;;4.75;1.00;;;19.40;99.90;;;;;;5043004;28;20036;-94
2022/10/26 11:47:16;;;;;;;3.08;1.17;;;19.30;99.90;;;;;;5035645;28;20029;-96
2022/10/26 11:49:44;;;;;;;5.68;0.90;;;19.30;99.90;;;;;;5035272;28;20034;-95
2022/10/26 11:52:33;;;;;;;3.88;1.17;;;19.20;99.90;;;;;;5030764;28;20029;-96
2022/10/26 11:55:01;;;;;;;3.95;1.15;;;19.20;99.90;;;;;;5021711;28;20060;-96
2022/10/26 11:57:33;;;;;;;5.13;1.65;;;19.20;99.90;;;;;;5031267;28;20021;-95
2022/10/26 12:00:05;;;;;;;3.17;1.00;;;19.20;99.90;;;;;;5033803;28;20041;-95
2022/10/26 12:02:32;;;;;;;;;;;19.30;99.90;;;;;;5032363;28;20460;-94
2022/10/26 12:05:07;;;;;;;2.42;0.73;;;19.50;99.90;;;;;;5035718;28;19920;-96
2022/10/26 12:07:36;;;;;;;4.32;1.20;;;19.60;99.90;;;;;;5034838;28;20033;-93
2022/10/26 12:10:05;;;;;;;5.25;1.10;;;19.60;99.90;;;;;;5033948;28;20029;-89
2022/10/26 12:12:43;;;;;;;3.15;0.95;;;19.70;99.90;;;;;;5029788;28;20025;-86
2022/10/26 12:15:20;;;;;;;3.15;0.90;;;19.70;99.90;;;;;;5031614;28;20061;-88
2022/10/26 12:17:56;;;;;;;3.97;1.00;;;19.70;99.90;;;;;;5034279;28;20030;-88
2022/10/26 12:20:47;;;;;;;9.63;1.27;;;19.70;99.90;;;;;;5034988;28;20041;-94
2022/10/26 12:23:13;;;;;;;2.70;1.00;;;19.70;99.90;;;;;;5024456;28;20040;-93
2022/10/26 12:25:39;;;;;;;4.30;1.40;;;19.80;99.90;;;;;;5034477;28;20025;-94
2022/10/26 12:28:24;;;;;;;6.43;1.10;;;19.70;99.90;;;;;;5034235;28;20025;-94
2022/10/26 12:30:50;;;;;;;4.22;1.20;;;19.80;99.90;;;;;;5039198;28;20026;-94
2022/10/26 12:33:29;;;;;;;3.97;1.00;;;19.80;99.90;;;;;;5033277;28;20028;-94
2022/10/26 12:35:55;;;;;;;5.30;1.45;;;19.80;99.90;;;;;;5035205;28;20035;-93
2022/10/26 12:38:23;;;;;;;7.57;1.40;;;19.80;99.90;;;;;;5035340;28;20029;-95
2022/10/26 12:41:16;;;;;;;4.53;1.50;;;19.80;99.90;;;;;;5036304;28;20049;-94
2022/10/26 12:43:42;;;;;;;5.18;1.55;;;19.80;99.90;;;;;;5024148;28;20052;-95
2022/10/26 12:46:14;;;;;;;3.72;1.38;;;19.80;99.90;;;;;;5030707;28;20026;-96
2022/10/26 12:48:47;;;;;;;3.03;1.52;;;19.90;99.90;;;;;;5036075;28;20033;-96
2022/10/26 12:51:25;;;;;;;2.95;1.63;;;19.90;99.90;;;;;;5021216;28;20448;-94
2022/10/26 12:53:59;;;;;;;5.72;2.00;;;19.90;99.90;;;;;;5034011;28;20065;-94
2022/10/26 12:56:54;;;;;;;6.80;1.70;;;19.90;99.90;;;;;;5025463;28;20033;-95
2022/10/26 12:59:31;;;;;;;3.90;1.63;;;19.90;99.90;;;;;;5035756;28;20029;-95
2022/10/26 13:02:24;;;;;;;3.33;1.70;;;19.90;99.90;;;;;;5032808;28;20113;-95
2022/10/26 13:05:17;;;;;;;4.47;1.45;;;19.90;99.90;;;;;;5023244;28;20021;-96
2022/10/26 13:07:43;;;;;;;4.28;1.52;;;19.90;99.90;;;;;;5047143;28;20025;-95
2022/10/26 13:10:12;;;;;;;3.13;1.35;;;19.90;99.90;;;;;;5030475;28;20504;-95
2022/10/26 13:12:52;;;;;;;4.65;1.40;;;20.00;99.90;;;;;;5033640;28;20068;-95